Time;durP1;ratioP1;P1;durP2;ratioP2;P2;SDS_P1;SDS_P2;PMS_P1;PMS_P2;Temp;Humidity;BMP_temperature;BMP_pressure;BME280_temperature;BME280_humidity;BME280_pressure;Samples;Min_cycle;Max_cycle;Signal;HPM_P1;HPM_P2
2023/10/24 00:01:22;;;;;;;3.80;1.70;;;;;;;11.32;100.00;99351.56;10114593;29;20071;-77
2023/10/24 00:06:25;;;;;;;9.02;2.28;;;;;;;11.36;100.00;99365.56;10101311;29;20052;-77
2023/10/24 00:11:28;;;;;;;5.80;1.83;;;;;;;11.40;100.00;99357.00;10116702;29;20099;-77
2023/10/24 00:16:32;;;;;;;7.60;2.13;;;;;;;11.41;100.00;99356.03;10107829;29;20052;-77
2023/10/24 00:21:35;;;;;;;3.60;1.83;;;;;;;11.46;100.00;99358.22;10112713;29;20044;-77
2023/10/24 00:26:38;;;;;;;5.20;2.10;;;;;;;11.38;98.68;99348.28;10118243;29;20451;-77
2023/10/24 00:31:42;;;;;;;8.35;2.03;;;;;;;11.42;97.95;99351.50;10129939;29;20048;-76
2023/10/24 00:36:46;;;;;;;7.15;1.98;;;;;;;11.30;96.24;99348.22;10128215;29;20051;-77
2023/10/24 00:41:50;;;;;;;6.15;2.08;;;;;;;11.45;96.50;99335.03;10110496;29;20076;-76
2023/10/24 00:46:55;;;;;;;5.25;1.80;;;;;;;11.50;96.49;99351.56;10109150;29;20051;-77
2023/10/24 00:51:59;;;;;;;8.32;1.85;;;;;;;11.45;95.49;99341.25;10120940;29;20040;-76
2023/10/24 00:57:04;;;;;;;4.88;2.55;;;;;;;11.51;95.36;99334.41;10117374;29;20084;-78
2023/10/24 01:02:09;;;;;;;4.80;1.65;;;;;;;11.56;95.52;99336.66;10112695;29;20052;-76
2023/10/24 01:07:12;;;;;;;5.43;1.85;;;;;;;11.58;95.94;99323.91;10092779;29;20627;-76
2023/10/24 01:12:16;;;;;;;6.75;1.92;;;;;;;11.42;93.15;99308.47;10105613;29;20056;-77
2023/10/24 01:17:20;;;;;;;6.75;1.98;;;;;;;11.22;98.40;99299.75;10106169;29;20055;-76
2023/10/24 01:22:25;;;;;;;6.82;1.85;;;;;;;10.98;100.00;99297.66;10106694;29;20052;-76
2023/10/24 01:27:28;;;;;;;3.25;1.80;;;;;;;10.88;100.00;99299.53;10088813;29;20818;-77
2023/10/24 01:32:31;;;;;;;4.72;1.88;;;;;;;10.76;100.00;99301.63;10092893;29;20063;-77
2023/10/24 01:37:36;;;;;;;6.28;2.25;;;;;;;10.76;100.00;99313.19;10105103;29;20156;-77
2023/10/24 01:42:39;;;;;;;8.45;1.85;;;;;;;10.73;100.00;99297.41;10110420;29;20084;-77
2023/10/24 01:47:43;;;;;;;7.38;2.20;;;;;;;10.90;100.00;99282.28;10098537;29;20067;-76
2023/10/24 01:52:48;;;;;;;4.85;1.85;;;;;;;10.98;100.00;99282.34;10107873;29;20790;-77
2023/10/24 01:57:51;;;;;;;3.80;2.00;;;;;;;10.97;100.00;99279.81;10117981;29;20716;-77
2023/10/24 02:02:54;;;;;;;10.77;2.40;;;;;;;10.88;100.00;99280.75;10116201;29;20047;-77
2023/10/24 02:07:58;;;;;;;5.32;2.38;;;;;;;11.12;100.00;99281.00;10106823;29;20055;-76
2023/10/24 02:13:01;;;;;;;6.57;2.28;;;;;;;11.09;100.00;99267.00;10122251;29;20043;-76
2023/10/24 02:18:04;;;;;;;5.20;2.03;;;;;;;11.16;100.00;99252.84;10105000;29;20203;-77
2023/10/24 02:23:09;;;;;;;3.78;1.92;;;;;;;11.26;100.00;99250.03;10118666;29;20067;-76
2023/10/24 02:28:12;;;;;;;3.92;1.75;;;;;;;11.31;100.00;99239.66;10111653;29;20049;-77
2023/10/24 02:33:15;;;;;;;8.40;1.83;;;;;;;11.36;100.00;99247.25;10105905;29;20048;-78
2023/10/24 02:38:20;;;;;;;7.68;2.20;;;;;;;11.35;100.00;99235.66;10111732;29;20064;-77
2023/10/24 02:43:24;;;;;;;8.27;2.60;;;;;;;11.39;100.00;99236.19;10123009;29;20056;-77
2023/10/24 02:48:27;;;;;;;7.40;2.72;;;;;;;11.35;100.00;99250.94;10118629;29;21181;-77
2023/10/24 02:53:32;;;;;;;7.82;2.40;;;;;;;11.35;100.00;99248.25;10090911;29;20052;-77
2023/10/24 02:58:35;;;;;;;6.75;2.28;;;;;;;11.40;100.00;99213.66;10099962;29;20459;-77
2023/10/24 03:03:39;;;;;;;9.95;2.42;;;;;;;11.41;100.00;99212.66;10133326;29;20048;-78
2023/10/24 03:08:44;;;;;;;6.72;2.10;;;;;;;11.30;100.00;99219.16;10132644;29;20491;-77
2023/10/24 03:13:47;;;;;;;4.40;2.10;;;;;;;11.26;100.00;99218.63;10115119;29;20058;-78
2023/10/24 03:18:50;;;;;;;7.72;2.35;;;;;;;11.27;100.00;99235.59;10142401;29;20055;-78
2023/10/24 03:23:55;;;;;;;5.60;2.25;;;;;;;11.31;100.00;99220.00;10130473;29;20044;-78
2023/10/24 03:28:58;;;;;;;8.02;1.90;;;;;;;11.34;100.00;99225.91;10112342;29;20488;-79
2023/10/24 03:34:02;;;;;;;6.68;1.92;;;;;;;11.37;100.00;99244.41;10126931;29;20538;-78
2023/10/24 03:39:08;;;;;;;4.25;1.92;;;;;;;11.39;100.00;99241.56;10109613;29;20051;-79
2023/10/24 03:44:11;;;;;;;2.78;2.25;;;;;;;11.42;100.00;99249.31;10130779;29;20048;-78
2023/10/24 03:49:14;;;;;;;2.72;1.80;;;;;;;11.52;100.00;99225.88;10119088;29;20124;-79
2023/10/24 03:54:19;;;;;;;2.67;1.90;;;;;;;11.54;100.00;99221.16;10125926;29;20058;-78
2023/10/24 03:59:22;;;;;;;5.38;2.35;;;;;;;11.56;100.00;99229.06;10117351;29;20060;-78
2023/10/24 04:04:25;;;;;;;6.15;3.08;;;;;;;11.57;100.00;99230.75;10104317;29;20421;-78
2023/10/24 04:09:29;;;;;;;5.35;2.65;;;;;;;11.58;100.00;99222.53;10116563;29;20056;-78
2023/10/24 04:14:40;;;;;;;6.32;2.55;;;;;;;11.60;100.00;99239.38;10119612;29;20076;-78
2023/10/24 04:19:45;;;;;;;4.50;2.45;;;;;;;11.62;100.00;99240.03;10092139;29;20055;-78
2023/10/24 04:24:50;;;;;;;6.90;2.45;;;;;;;11.66;100.00;99241.41;10117934;29;20267;-78
2023/10/24 04:30:09;;;;;;;2.72;2.25;;;;;;;11.65;100.00;99247.78;10064681;29;20101;-78
2023/10/24 04:35:13;;;;;;;5.63;2.45;;;;;;;11.76;100.00;99254.72;10108998;29;20052;-77
2023/10/24 04:40:19;;;;;;;6.82;2.75;;;;;;;11.80;99.76;99250.72;10120507;29;20470;-78
2023/10/24 04:45:22;;;;;;;4.25;2.25;;;;;;;11.81;97.32;99248.88;10113034;29;20064;-78
2023/10/24 04:50:25;;;;;;;5.57;2.35;;;;;;;11.90;96.86;99245.22;10115420;29;20516;-78
2023/10/24 04:55:29;;;;;;;6.28;2.65;;;;;;;11.89;96.03;99244.38;10102750;29;21198;-77
2023/10/24 05:00:32;;;;;;;5.18;2.25;;;;;;;11.90;95.44;99242.53;10109609;29;20048;-77
2023/10/24 05:05:35;;;;;;;6.28;2.03;;;;;;;11.94;95.73;99219.69;10118651;29;20048;-78
2023/10/24 05:10:39;;;;;;;6.32;2.20;;;;;;;11.93;98.09;99231.47;10115965;29;20063;-77
2023/10/24 05:15:42;;;;;;;3.58;2.08;;;;;;;11.93;96.47;99236.84;10111933;29;20076;-78
2023/10/24 05:20:47;;;;;;;7.47;2.53;;;;;;;11.94;95.84;99225.91;10115656;29;20123;-78
2023/10/24 05:25:52;;;;;;;3.38;2.10;;;;;;;11.96;94.46;99220.38;10126616;29;20420;-77
2023/10/24 05:30:55;;;;;;;4.35;1.88;;;;;;;11.98;93.89;99223.72;10126020;29;20128;-78
2023/10/24 05:35:58;;;;;;;4.10;2.17;;;;;;;11.95;92.42;99222.19;10123874;29;20052;-77
2023/10/24 05:41:03;;;;;;;3.85;2.50;;;;;;;12.00;92.06;99234.34;10123346;29;20763;-76
2023/10/24 05:46:06;;;;;;;5.53;2.35;;;;;;;11.86;90.87;99219.66;10119459;29;20059;-76
2023/10/24 05:51:10;;;;;;;4.47;2.20;;;;;;;12.08;93.54;99212.84;10115307;29;20083;-78
2023/10/24 05:56:14;;;;;;;2.80;2.17;;;;;;;12.08;94.27;99216.38;10126423;29;20780;-77
2023/10/24 06:01:17;;;;;;;8.75;2.53;;;;;;;12.01;90.92;99214.50;10124089;29;20052;-77
2023/10/24 06:06:20;;;;;;;2.95;2.20;;;;;;;12.07;90.36;99213.88;10120597;29;20190;-76
2023/10/24 06:11:24;;;;;;;5.38;2.05;;;;;;;12.13;90.78;99221.28;10136366;29;20074;-77
2023/10/24 06:16:27;;;;;;;2.42;2.22;;;;;;;12.19;90.96;99214.41;10128272;29;20055;-78
2023/10/24 06:21:30;;;;;;;5.03;2.63;;;;;;;12.16;89.98;99216.41;10130730;29;20048;-77
2023/10/24 06:26:35;;;;;;;2.60;2.08;;;;;;;12.19;94.06;99207.16;10116062;29;20063;-77
2023/10/24 06:31:37;;;;;;;7.18;2.22;;;;;;;12.19;94.50;99223.31;10117114;29;20044;-77
2023/10/24 06:36:40;;;;;;;3.60;2.72;;;;;;;12.17;94.74;99223.47;10123190;29;20176;-77
2023/10/24 06:41:45;;;;;;;4.78;4.30;;;;;;;12.17;97.65;99210.00;10128973;29;20062;-76
2023/10/24 06:46:56;;;;;;;4.47;3.40;;;;;;;12.14;100.00;99213.03;10112515;29;20048;-76
2023/10/24 06:51:59;;;;;;;8.60;2.67;;;;;;;12.13;100.00;99205.97;10130421;29;20527;-77
2023/10/24 06:57:05;;;;;;;3.97;2.30;;;;;;;12.13;100.00;99208.66;10134552;29;20048;-77
2023/10/24 07:02:08;;;;;;;4.47;2.78;;;;;;;12.14;100.00;99215.72;10114810;29;20057;-77
2023/10/24 07:07:13;;;;;;;3.63;2.40;;;;;;;12.21;100.00;99207.84;10128785;29;20063;-77
2023/10/24 07:12:19;;;;;;;2.90;2.60;;;;;;;12.30;96.88;99195.28;10128968;29;20056;-76
2023/10/24 07:17:22;;;;;;;2.55;2.15;;;;;;;12.40;94.23;99204.06;10122085;29;20052;-78
2023/10/24 07:22:24;;;;;;;6.05;2.42;;;;;;;12.43;91.84;99209.13;10128492;29;20059;-76
2023/10/24 07:27:29;;;;;;;3.33;2.38;;;;;;;12.51;93.12;99211.84;10110986;29;20425;-77
2023/10/24 07:32:32;;;;;;;3.55;2.05;;;;;;;12.52;91.59;99200.03;10113083;29;20053;-76
2023/10/24 07:37:36;;;;;;;3.92;2.05;;;;;;;12.66;90.75;99200.41;10116657;29;20048;-77
2023/10/24 07:42:40;;;;;;;2.60;1.90;;;;;;;12.78;91.28;99197.22;10131243;29;20056;-76
2023/10/24 07:47:43;;;;;;;2.63;1.98;;;;;;;12.78;88.48;99201.75;10130208;29;20051;-78
2023/10/24 07:52:46;;;;;;;2.33;2.10;;;;;;;12.82;88.40;99203.09;10116256;29;20139;-77
2023/10/24 07:57:51;;;;;;;3.63;2.00;;;;;;;12.83;87.94;99204.78;10126475;29;20056;-77
2023/10/24 08:02:54;;;;;;;3.70;1.90;;;;;;;12.83;85.65;99208.34;10124747;29;20070;-78
2023/10/24 08:08:00;;;;;;;3.78;1.60;;;;;;;12.87;86.39;99208.84;10138092;29;20830;-77
2023/10/24 08:13:05;;;;;;;4.43;1.75;;;;;;;12.79;85.15;99200.75;10131103;29;20056;-78
2023/10/24 08:18:08;;;;;;;2.72;1.67;;;;;;;12.82;85.19;99184.25;10122563;29;21235;-78
2023/10/24 08:23:12;;;;;;;2.78;1.23;;;;;;;12.77;84.71;99200.91;10141815;29;20074;-78
2023/10/24 08:28:16;;;;;;;5.60;1.58;;;;;;;12.67;84.57;99208.34;10141520;29;20166;-79
2023/10/24 08:33:20;;;;;;;2.05;1.75;;;;;;;12.64;84.24;99205.09;10143344;29;21359;-78
2023/10/24 08:38:23;;;;;;;2.33;1.52;;;;;;;12.65;83.44;99212.19;10147146;29;20060;-78
2023/10/24 08:43:28;;;;;;;3.13;1.25;;;;;;;12.13;85.60;99232.88;10134256;29;20482;-78
2023/10/24 08:48:34;;;;;;;4.00;2.22;;;;;;;12.21;90.14;99232.09;10116295;29;20048;-77
2023/10/24 08:53:37;;;;;;;4.00;2.50;;;;;;;12.68;87.87;99236.94;10125796;29;20833;-77
2023/10/24 08:58:43;;;;;;;4.93;1.90;;;;;;;13.11;85.99;99240.34;10098240;29;20052;-78
2023/10/24 09:03:48;;;;;;;2.40;1.83;;;;;;;13.34;83.61;99236.97;10116291;29;20723;-79
2023/10/24 09:08:51;;;;;;;3.10;1.35;;;;;;;13.38;80.31;99243.72;10125778;29;20055;-78
2023/10/24 09:13:55;;;;;;;2.47;1.48;;;;;;;12.88;79.85;99259.03;10114284;29;20077;-77
2023/10/24 09:19:12;;;;;;;5.03;1.55;;;;;;;13.11;79.16;99261.94;10126791;29;20981;-78
2023/10/24 09:24:19;;;;;;;2.67;1.35;;;;;;;12.70;79.44;99258.31;10127064;29;20048;-77
2023/10/24 09:29:24;;;;;;;2.65;1.40;;;;;;;12.65;79.23;99261.53;10129303;29;20052;-78
2023/10/24 09:34:31;;;;;;;2.63;1.50;;;;;;;12.57;79.59;99256.13;10144341;29;20044;-78
2023/10/24 09:39:54;;;;;;;1.98;1.10;;;;;;;12.77;78.24;99240.50;10182254;29;20054;-79
2023/10/24 09:45:00;;;;;;;3.25;1.17;;;;;;;12.83;78.70;99235.28;10159976;29;20075;-78
2023/10/24 09:50:05;;;;;;;1.85;1.40;;;;;;;12.73;79.05;99226.50;10133247;29;20618;-78
2023/10/24 09:55:08;;;;;;;3.40;1.40;;;;;;;12.76;78.71;99214.56;10116865;29;20505;-78
2023/10/24 10:00:14;;;;;;;3.17;1.40;;;;;;;13.10;78.04;99229.72;10110835;29;20069;-78
2023/10/24 10:05:18;;;;;;;2.65;1.38;;;;;;;13.20;77.47;99217.75;10133949;29;20049;-78
2023/10/24 10:10:24;;;;;;;3.25;1.48;;;;;;;12.98;77.29;99215.75;10123100;29;20171;-78
2023/10/24 10:15:43;;;;;;;1.20;1.05;;;;;;;12.80;78.13;99194.34;10135434;29;20053;-78
2023/10/24 10:20:57;;;;;;;1.67;1.17;;;;;;;12.73;78.15;99193.34;10146265;29;20087;-77
2023/10/24 10:26:06;;;;;;;1.67;1.38;;;;;;;12.96;77.46;99212.38;10159258;29;20055;-79
2023/10/24 10:31:28;;;;;;;2.10;1.20;;;;;;;13.16;76.40;99226.34;10152567;29;20052;-79
2023/10/24 10:36:55;;;;;;;1.80;1.25;;;;;;;13.32;75.68;99201.22;10140944;29;20064;-79
2023/10/24 10:41:58;;;;;;;3.05;1.10;;;;;;;13.56;75.89;99206.63;10120499;29;20048;-78
2023/10/24 10:47:03;;;;;;;3.30;1.00;;;;;;;13.96;74.66;99202.13;10140862;29;20059;-78
2023/10/24 10:52:12;;;;;;;2.00;1.13;;;;;;;13.75;74.78;99205.38;10149830;29;20052;-79
2023/10/24 10:57:23;;;;;;;3.45;1.35;;;;;;;13.84;74.58;99180.03;10138009;29;20078;-78
2023/10/24 11:02:50;;;;;;;5.00;1.27;;;;;;;13.76;74.61;99188.16;10139789;29;20060;-78
2023/10/24 11:07:54;;;;;;;2.30;1.52;;;;;;;13.40;74.72;99182.38;10131115;29;20417;-78
2023/10/24 11:12:58;;;;;;;2.22;1.00;;;;;;;13.55;74.81;99158.22;10127229;29;20804;-79
2023/10/24 11:18:05;;;;;;;1.30;1.08;;;;;;;13.52;74.18;99162.13;10117649;29;20053;-79
2023/10/24 11:23:08;;;;;;;1.60;1.00;;;;;;;13.40;73.42;99142.75;10129719;29;20063;-78
2023/10/24 11:28:11;;;;;;;2.33;0.90;;;;;;;13.60;73.16;99131.56;10128805;29;20071;-78
2023/10/24 11:33:17;;;;;;;2.03;1.10;;;;;;;13.67;72.69;99124.47;10107385;29;20412;-79
2023/10/24 11:38:20;;;;;;;2.67;1.00;;;;;;;13.40;71.66;99123.03;10114604;29;20206;-79
2023/10/24 11:43:23;;;;;;;1.58;1.10;;;;;;;13.80;70.50;99140.09;10139052;29;21195;-78
2023/10/24 11:48:28;;;;;;;1.15;0.90;;;;;;;13.72;69.73;99135.56;10141717;29;20040;-78
2023/10/24 11:53:31;;;;;;;1.98;1.30;;;;;;;14.01;69.64;99125.97;10134741;29;20426;-78
2023/10/24 11:58:35;;;;;;;1.27;1.00;;;;;;;13.89;69.10;99131.78;10137622;29;20492;-78
2023/10/24 12:03:46;;;;;;;3.72;0.93;;;;;;;13.62;70.52;99121.44;10145539;29;20048;-78
2023/10/24 12:08:50;;;;;;;1.23;0.95;;;;;;;13.69;70.17;99109.78;10179203;29;20048;-78
2023/10/24 12:13:53;;;;;;;1.20;1.08;;;;;;;13.56;70.53;99114.06;10153388;29;20108;-79
2023/10/24 12:18:58;;;;;;;3.22;1.25;;;;;;;13.82;70.31;99109.22;10138600;29;20084;-78
2023/10/24 12:24:01;;;;;;;1.00;0.88;;;;;;;13.88;70.58;99105.81;10121030;29;20065;-79
2023/10/24 12:29:09;;;;;;;2.00;1.10;;;;;;;13.63;70.44;99106.91;10131575;29;20052;-78
2023/10/24 12:34:14;;;;;;;0.90;0.80;;;;;;;13.71;70.26;99107.75;10135079;29;20063;-78
2023/10/24 12:39:17;;;;;;;1.40;1.02;;;;;;;13.93;70.10;99105.25;10125405;29;20051;-78
2023/10/24 12:44:20;;;;;;;2.03;0.82;;;;;;;13.73;69.70;99104.03;10110833;29;20182;-78
2023/10/24 12:49:24;;;;;;;1.70;1.30;;;;;;;13.80;70.42;99095.06;10122062;29;20424;-77
2023/10/24 12:54:27;;;;;;;1.27;1.17;;;;;;;13.74;70.33;99084.13;10120778;29;20045;-77
2023/10/24 12:59:30;;;;;;;2.90;1.20;;;;;;;13.81;70.80;99082.41;10122252;29;20051;-78
2023/10/24 13:04:35;;;;;;;1.88;1.30;;;;;;;13.94;70.26;99072.69;10160789;29;20055;-77
2023/10/24 13:09:40;;;;;;;1.83;0.95;;;;;;;14.10;69.18;99079.88;10171976;29;20111;-79
2023/10/24 13:14:44;;;;;;;1.15;0.60;;;;;;;14.40;69.99;99087.28;10139621;29;20858;-79
2023/10/24 13:19:48;;;;;;;1.75;0.88;;;;;;;14.88;66.97;99086.00;10137421;29;20048;-79
2023/10/24 13:24:51;;;;;;;2.08;0.90;;;;;;;14.88;67.29;99090.59;10135895;29;20048;-78
2023/10/24 13:29:54;;;;;;;2.22;0.95;;;;;;;14.86;67.06;99100.72;10132887;29;20087;-78
2023/10/24 13:34:59;;;;;;;2.85;1.20;;;;;;;14.43;68.19;99095.88;10127269;29;21056;-78
2023/10/24 13:40:05;;;;;;;1.80;1.02;;;;;;;14.40;68.63;99089.97;10133053;29;20076;-79
2023/10/24 13:45:09;;;;;;;6.70;1.45;;;;;;;14.42;68.26;99096.03;10140951;29;20535;-78
2023/10/24 13:50:14;;;;;;;2.78;1.15;;;;;;;14.30;68.17;99082.94;10136354;29;20154;-82
2023/10/24 13:55:17;;;;;;;3.20;1.10;;;;;;;13.89;69.87;99091.28;10118797;29;20048;-81
2023/10/24 14:00:21;;;;;;;4.28;0.90;;;;;;;14.04;69.80;99091.38;10111607;29;20053;-82
2023/10/24 14:05:27;;;;;;;4.20;1.42;;;;;;;13.92;70.74;99098.19;10122964;29;20075;-81
2023/10/24 14:10:30;;;;;;;1.58;1.30;;;;;;;13.76;73.28;99101.81;10132933;29;20044;-81
2023/10/24 14:15:34;;;;;;;1.45;1.00;;;;;;;13.58;75.07;99093.97;10124157;29;20079;-81
2023/10/24 14:20:38;;;;;;;2.88;1.10;;;;;;;13.37;78.97;99102.66;10131426;29;20401;-80
2023/10/24 14:25:42;;;;;;;2.03;1.40;;;;;;;12.86;82.89;99102.03;10125931;29;20047;-81
2023/10/24 14:30:45;;;;;;;3.53;1.58;;;;;;;12.39;86.86;99100.88;10125033;29;20063;-81
2023/10/24 14:35:49;;;;;;;2.08;1.65;;;;;;;12.08;91.00;99099.81;10158282;29;20055;-80
2023/10/24 14:40:52;;;;;;;3.28;1.75;;;;;;;11.92;93.85;99106.00;10175360;28;20112;-80
2023/10/24 14:45:56;;;;;;;5.13;2.50;;;;;;;11.88;96.87;99105.47;10140289;29;20056;-82
2023/10/24 14:51:00;;;;;;;4.65;2.42;;;;;;;11.65;100.00;99115.97;10140014;29;20048;-80
2023/10/24 14:56:04;;;;;;;5.00;2.88;;;;;;;11.56;100.00;99126.88;10136585;29;20689;-82
2023/10/24 15:01:09;;;;;;;2.72;1.92;;;;;;;11.43;100.00;99130.00;10122174;29;20765;-81
2023/10/24 15:06:14;;;;;;;3.92;1.42;;;;;;;11.33;100.00;99119.38;10136764;29;20059;-81
2023/10/24 15:11:17;;;;;;;3.42;2.70;;;;;;;11.44;100.00;99124.47;10126831;29;20056;-81
2023/10/24 15:16:20;;;;;;;4.80;2.38;;;;;;;11.36;100.00;99124.44;10125946;29;20048;-80
2023/10/24 15:21:24;;;;;;;3.92;2.83;;;;;;;11.31;100.00;99121.38;10109434;29;20048;-81
2023/10/24 15:26:28;;;;;;;4.72;3.00;;;;;;;11.27;100.00;99138.81;10127870;29;20064;-81
2023/10/24 15:31:31;;;;;;;4.68;3.35;;;;;;;11.19;100.00;99130.69;10117474;29;20567;-81
2023/10/24 15:36:36;;;;;;;8.65;3.58;;;;;;;11.25;100.00;99132.78;10134710;29;20059;-80
2023/10/24 15:41:41;;;;;;;7.18;3.53;;;;;;;11.25;100.00;99120.19;10121180;29;20056;-80
2023/10/24 15:46:44;;;;;;;5.05;3.40;;;;;;;11.14;100.00;99098.94;10103688;29;20055;-80
2023/10/24 15:51:49;;;;;;;7.07;4.35;;;;;;;11.21;100.00;99097.28;10116291;29;20055;-79
2023/10/24 15:56:52;;;;;;;5.90;4.10;;;;;;;11.26;100.00;99091.44;10121325;29;20059;-80
2023/10/24 16:01:57;;;;;;;6.45;4.28;;;;;;;11.37;100.00;99077.72;10126038;29;20047;-79
2023/10/24 16:07:02;;;;;;;7.22;5.43;;;;;;;11.32;100.00;99095.34;10138319;29;20216;-78
2023/10/24 16:12:06;;;;;;;5.93;5.32;;;;;;;11.42;100.00;99078.09;10119840;29;20423;-80
2023/10/24 16:17:09;;;;;;;6.20;5.32;;;;;;;11.27;100.00;99085.06;10127729;29;20053;-78
2023/10/24 16:22:13;;;;;;;10.10;5.40;;;;;;;11.05;100.00;99091.78;10138736;29;20055;-78
2023/10/24 16:27:16;;;;;;;8.98;6.03;;;;;;;10.82;100.00;99091.47;10134410;29;20445;-79
2023/10/24 16:32:19;;;;;;;5.97;5.38;;;;;;;10.65;100.00;99097.75;10116158;29;20047;-79
2023/10/24 16:37:23;;;;;;;7.45;5.15;;;;;;;10.61;100.00;99100.75;10168598;29;20080;-79
2023/10/24 16:42:26;;;;;;;5.18;4.32;;;;;;;10.51;100.00;99101.84;10157067;29;20060;-79
2023/10/24 16:47:30;;;;;;;5.30;4.30;;;;;;;10.53;100.00;99108.75;10156025;29;20056;-80
2023/10/24 16:52:35;;;;;;;5.70;5.10;;;;;;;10.53;100.00;99118.59;10148376;29;20176;-82
2023/10/24 16:57:38;;;;;;;5.70;5.10;;;;;;;10.32;100.00;99111.72;10151835;29;20075;-80
2023/10/24 17:02:42;;;;;;;6.07;5.35;;;;;;;10.30;100.00;99118.25;10132415;29;20055;-79
2023/10/24 17:07:47;;;;;;;8.30;5.65;;;;;;;10.25;100.00;99124.06;10169340;29;20080;-79
2023/10/24 17:12:50;;;;;;;8.07;5.65;;;;;;;10.19;100.00;99116.63;10146425;29;20063;-79
2023/10/24 17:17:54;;;;;;;7.10;5.85;;;;;;;10.12;100.00;99119.09;10153138;29;20138;-80
2023/10/24 17:22:58;;;;;;;8.70;6.43;;;;;;;10.10;100.00;99120.25;10153258;29;20059;-79
2023/10/24 17:28:01;;;;;;;9.52;6.65;;;;;;;9.98;100.00;99118.75;10152481;29;21079;-79
2023/10/24 17:33:04;;;;;;;7.05;6.35;;;;;;;9.90;100.00;99124.88;10144915;29;20049;-79
2023/10/24 17:38:09;;;;;;;8.48;6.80;;;;;;;9.82;100.00;99138.16;10137250;29;20770;-78
2023/10/24 17:43:12;;;;;;;8.45;6.10;;;;;;;9.70;100.00;99135.66;10126738;29;20059;-78
2023/10/24 17:48:15;;;;;;;8.45;7.50;;;;;;;9.72;100.00;99138.22;10131363;29;20133;-79
2023/10/24 17:53:19;;;;;;;8.40;7.20;;;;;;;9.67;100.00;99138.66;10147508;29;20041;-80
2023/10/24 17:58:23;;;;;;;7.93;7.07;;;;;;;9.59;100.00;99145.75;10144714;29;20059;-80
2023/10/24 18:03:26;;;;;;;11.95;8.05;;;;;;;9.65;100.00;99147.84;10164447;29;20055;-80
2023/10/24 18:08:30;;;;;;;12.50;8.40;;;;;;;9.63;100.00;99145.31;10127781;29;20055;-79
2023/10/24 18:13:33;;;;;;;10.18;9.02;;;;;;;9.67;100.00;99148.53;10139240;29;20055;-80
2023/10/24 18:18:36;;;;;;;14.15;10.57;;;;;;;9.66;100.00;99152.22;10141517;29;20099;-80
2023/10/24 18:23:42;;;;;;;15.55;10.50;;;;;;;9.69;100.00;99151.94;10149530;29;20056;-79
2023/10/24 18:28:45;;;;;;;15.90;13.30;;;;;;;9.67;100.00;99153.91;10146979;29;20048;-79
2023/10/24 18:33:48;;;;;;;18.90;12.75;;;;;;;9.64;100.00;99148.84;10127988;29;20044;-79
2023/10/24 18:38:53;;;;;;;16.58;12.45;;;;;;;9.66;100.00;99149.53;10165895;29;20076;-79
2023/10/24 18:43:56;;;;;;;17.00;13.38;;;;;;;9.66;100.00;99163.78;10140086;29;20504;-81
2023/10/24 18:48:59;;;;;;;18.17;13.98;;;;;;;9.67;100.00;99157.44;10118738;29;20048;-80
2023/10/24 18:54:03;;;;;;;25.05;17.20;;;;;;;9.69;100.00;99154.59;10136676;29;20046;-80
2023/10/24 18:59:06;;;;;;;18.70;13.80;;;;;;;9.68;100.00;99156.44;10147765;29;20179;-81
2023/10/24 19:04:10;;;;;;;14.88;12.02;;;;;;;9.70;100.00;99157.13;10122983;29;20188;-80
2023/10/24 19:09:15;;;;;;;15.68;11.95;;;;;;;9.64;100.00;99160.41;10141883;29;20052;-79
2023/10/24 19:14:19;;;;;;;12.52;10.05;;;;;;;9.59;100.00;99161.84;10125302;29;21063;-78
2023/10/24 19:19:23;;;;;;;13.02;10.10;;;;;;;9.50;100.00;99159.06;10156982;29;21064;-77
2023/10/24 19:24:28;;;;;;;15.40;10.20;;;;;;;9.43;100.00;99160.63;10144491;29;20066;-77
2023/10/24 19:29:32;;;;;;;15.45;10.65;;;;;;;9.38;100.00;99154.00;10124340;29;20046;-77
2023/10/24 19:34:37;;;;;;;14.25;11.35;;;;;;;9.38;100.00;99159.38;10153034;29;20040;-78
2023/10/24 19:39:42;;;;;;;15.18;11.68;;;;;;;9.20;100.00;99160.16;10155994;29;20115;-79
2023/10/24 19:44:45;;;;;;;12.75;10.13;;;;;;;9.21;100.00;99156.47;10166470;29;20052;-79
2023/10/24 19:49:51;;;;;;;16.45;12.23;;;;;;;9.29;100.00;99166.47;10148878;29;20068;-79
2023/10/24 19:54:56;;;;;;;17.52;13.43;;;;;;;9.28;100.00;99167.47;10125399;29;20052;-79
2023/10/24 20:00:00;;;;;;;19.92;14.43;;;;;;;9.20;100.00;99164.66;10137731;29;20067;-80
2023/10/24 20:05:10;;;;;;;23.20;16.33;;;;;;;9.29;100.00;99158.41;10162091;29;20060;-79
2023/10/24 20:10:15;;;;;;;22.25;16.35;;;;;;;9.10;100.00;99163.84;10169863;29;20052;-79
2023/10/24 20:15:39;;;;;;;24.40;17.08;;;;;;;9.21;100.00;99171.69;10158615;29;20044;-81
2023/10/24 20:20:44;;;;;;;25.35;17.30;;;;;;;9.11;100.00;99182.47;10145221;29;20098;-79
2023/10/24 20:25:50;;;;;;;24.10;17.50;;;;;;;8.97;100.00;99178.41;10163967;29;20123;-79
2023/10/24 20:30:54;;;;;;;28.85;17.27;;;;;;;8.92;100.00;99171.78;10164916;29;20080;-79
2023/10/24 20:35:58;;;;;;;29.08;19.17;;;;;;;8.97;100.00;99169.53;10157257;29;20480;-81
2023/10/24 20:41:02;;;;;;;30.35;19.58;;;;;;;8.90;100.00;99168.38;10178646;29;20048;-79
2023/10/24 20:46:05;;;;;;;24.92;17.38;;;;;;;8.98;100.00;99155.13;10183611;29;20048;-80
2023/10/24 20:51:10;;;;;;;27.25;16.80;;;;;;;9.01;100.00;99162.88;10189175;29;20051;-79
2023/10/24 20:56:14;;;;;;;28.52;17.70;;;;;;;8.96;100.00;99171.31;10180946;29;20071;-79
